createdAt,value
2023-04-02T00:00:23.815Z,7.00
2023-04-02T00:03:03.863Z,8.30
2023-04-02T00:05:52.870Z,6.17
2023-04-02T00:08:32.340Z,9.73
2023-04-02T00:11:02.383Z,7.43
2023-04-02T00:13:36.964Z,5.97
2023-04-02T00:16:09.004Z,8.80
2023-04-02T00:18:44.029Z,6.23
2023-04-02T00:21:17.560Z,8.87
2023-04-02T00:23:46.214Z,6.57
2023-04-02T00:26:26.776Z,9.80
2023-04-02T00:28:57.984Z,7.27
2023-04-02T00:31:27.787Z,7.90
2023-04-02T00:33:57.232Z,7.93
2023-04-02T00:36:30.194Z,10.50
2023-04-02T00:39:05.104Z,7.97
2023-04-02T00:41:36.157Z,8.57
2023-04-02T00:44:07.318Z,8.57
2023-04-02T00:46:49.747Z,9.57
2023-04-02T00:49:28.687Z,7.57
2023-04-02T00:52:02.077Z,8.53
2023-04-02T00:54:40.276Z,7.83
2023-04-02T00:57:18.059Z,7.63
2023-04-02T00:59:58.459Z,6.10
2023-04-02T01:02:31.847Z,7.57
2023-04-02T01:05:02.319Z,9.13
2023-04-02T01:07:59.968Z,7.23
2023-04-02T01:10:51.528Z,7.63
2023-04-02T01:13:28.684Z,9.17
2023-04-02T01:16:06.169Z,9.70
2023-04-02T01:18:51.496Z,8.30
2023-04-02T01:21:53.944Z,8.33
2023-04-02T01:24:26.657Z,8.57
2023-04-02T01:26:58.408Z,6.73
2023-04-02T01:29:31.580Z,9.23
2023-04-02T01:32:04.287Z,6.97
2023-04-02T01:34:33.785Z,5.93
2023-04-02T01:37:23.293Z,9.20
2023-04-02T01:40:09.297Z,7.73
2023-04-02T01:42:50.552Z,7.77
2023-04-02T01:45:23.768Z,6.70
2023-04-02T01:47:52.911Z,6.13
2023-04-02T01:50:32.248Z,7.50
2023-04-02T01:53:04.092Z,6.80
2023-04-02T01:55:41.986Z,6.57
2023-04-02T01:58:12.507Z,6.37
2023-04-02T02:00:48.863Z,5.87
2023-04-02T02:03:17.940Z,7.53
2023-04-02T02:05:47.531Z,7.90
2023-04-02T02:08:36.026Z,5.47
2023-04-02T02:11:05.722Z,6.30
2023-04-02T02:13:34.069Z,8.97
2023-04-02T02:16:06.171Z,8.40
2023-04-02T02:18:35.227Z,7.13
2023-04-02T02:21:09.373Z,5.37
2023-04-02T02:23:38.396Z,6.07
2023-04-02T02:26:08.139Z,7.43
2023-04-02T02:28:41.452Z,7.67
2023-04-02T02:31:18.681Z,5.67
2023-04-02T02:33:53.696Z,9.03
2023-04-02T02:36:29.472Z,6.83
2023-04-02T02:39:03.623Z,6.00
2023-04-02T02:41:41.495Z,4.53
2023-04-02T02:44:18.804Z,4.70
2023-04-02T02:46:53.074Z,6.60
2023-04-02T02:49:28.459Z,5.33
2023-04-02T02:52:05.545Z,4.40
2023-04-02T02:54:36.400Z,7.33
2023-04-02T02:57:10.080Z,5.70
2023-04-02T02:59:39.564Z,7.07
2023-04-02T03:02:11.051Z,6.70
2023-04-02T03:04:40.333Z,7.60
2023-04-02T03:07:10.458Z,8.20
2023-04-02T03:09:48.666Z,5.27
2023-04-02T03:12:38.037Z,6.60
2023-04-02T03:15:21.468Z,4.50
2023-04-02T03:17:57.767Z,7.27
2023-04-02T03:20:34.166Z,4.30
2023-04-02T03:23:13.854Z,4.80
2023-04-02T03:25:48.738Z,5.13
2023-04-02T03:28:22.476Z,4.00
2023-04-02T03:30:56.996Z,4.30
2023-04-02T03:33:32.628Z,4.47
2023-04-02T03:36:18.948Z,7.53
2023-04-02T03:38:52.987Z,3.87
2023-04-02T03:41:28.278Z,4.80
2023-04-02T03:44:00.470Z,5.80
2023-04-02T03:46:33.142Z,7.33
2023-04-02T03:49:08.419Z,6.00
2023-04-02T03:51:45.482Z,5.87
2023-04-02T03:54:17.385Z,4.57
2023-04-02T03:56:47.673Z,5.03
2023-04-02T03:59:25.994Z,3.70
2023-04-02T04:02:00.940Z,4.33
2023-04-02T04:04:33.419Z,5.63
2023-04-02T04:07:03.031Z,5.23
2023-04-02T04:09:34.647Z,8.57
2023-04-02T04:12:16.650Z,6.43
2023-04-02T04:14:51.389Z,2.77
2023-04-02T04:17:30.183Z,4.87
2023-04-02T04:20:10.856Z,6.60
2023-04-02T04:22:40.940Z,3.80
2023-04-02T04:25:22.860Z,4.87
2023-04-02T04:28:11.487Z,3.27
2023-04-02T04:30:51.444Z,6.97
2023-04-02T04:33:24.914Z,4.87
2023-04-02T04:35:59.155Z,5.63
2023-04-02T04:38:34.418Z,10.43
2023-04-02T04:41:07.972Z,4.27
2023-04-02T04:43:46.815Z,4.33
2023-04-02T04:46:19.638Z,4.87
2023-04-02T04:48:55.889Z,5.07
2023-04-02T04:51:31.821Z,3.87
2023-04-02T04:54:01.889Z,6.80
2023-04-02T04:56:32.296Z,5.47
2023-04-02T04:59:05.223Z,9.43
2023-04-02T05:01:40.541Z,6.50
2023-04-02T05:04:18.524Z,5.37
2023-04-02T05:06:57.044Z,7.50
2023-04-02T05:09:34.286Z,5.03
2023-04-02T05:12:13.340Z,6.63
2023-04-02T05:14:48.242Z,5.90
2023-04-02T05:17:22.775Z,6.77
2023-04-02T05:19:57.762Z,8.33
2023-04-02T05:22:36.280Z,6.73
2023-04-02T05:25:21.534Z,5.97
2023-04-02T05:27:56.071Z,6.83
2023-04-02T05:30:49.443Z,4.97
2023-04-02T05:33:27.748Z,6.30
2023-04-02T05:36:02.268Z,7.10
2023-04-02T05:38:35.918Z,7.20
2023-04-02T05:41:08.144Z,4.53
2023-04-02T05:43:39.213Z,5.77
2023-04-02T05:46:17.792Z,7.63
2023-04-02T05:48:52.415Z,7.47
2023-04-02T05:51:27.572Z,4.97
2023-04-02T05:54:00.798Z,6.23
2023-04-02T05:56:36.062Z,6.53
2023-04-02T05:59:10.622Z,5.40
2023-04-02T06:01:47.346Z,3.83
2023-04-02T06:04:26.645Z,7.77
2023-04-02T06:07:03.975Z,6.87
2023-04-02T06:09:47.373Z,5.57
2023-04-02T06:12:25.969Z,11.37
2023-04-02T06:14:54.888Z,6.30
2023-04-02T06:17:23.998Z,3.53
2023-04-02T06:19:54.657Z,5.67
2023-04-02T06:22:33.891Z,7.67
2023-04-02T06:25:07.853Z,4.00
2023-04-02T06:27:36.705Z,6.27
2023-04-02T06:30:11.729Z,5.80
2023-04-02T06:32:40.440Z,6.47
2023-04-02T06:35:14.307Z,4.93
2023-04-02T06:37:47.201Z,5.60
2023-04-02T06:40:40.373Z,6.07
2023-04-02T06:43:17.710Z,8.27
2023-04-02T06:45:51.834Z,5.17
2023-04-02T06:48:22.321Z,5.23
2023-04-02T06:50:56.653Z,4.67
2023-04-02T06:53:29.544Z,5.00
2023-04-02T06:56:05.681Z,5.13
2023-04-02T06:58:34.309Z,6.47
2023-04-02T07:01:02.719Z,6.27
2023-04-02T07:03:34.070Z,4.80
2023-04-02T07:06:04.859Z,3.83
2023-04-02T07:08:33.346Z,6.37
2023-04-02T07:11:03.146Z,4.20
2023-04-02T07:13:31.650Z,5.20
2023-04-02T07:16:00.168Z,2.93
2023-04-02T07:18:31.429Z,3.70
2023-04-02T07:21:00.264Z,4.53
2023-04-02T07:23:28.806Z,6.83
2023-04-02T07:25:58.527Z,5.70
2023-04-02T07:28:28.688Z,5.17
2023-04-02T07:30:58.007Z,5.93
2023-04-02T07:33:30.186Z,4.17
2023-04-02T07:35:59.504Z,5.20
2023-04-02T07:38:28.209Z,7.43
2023-04-02T07:40:57.091Z,4.37
2023-04-02T07:43:25.937Z,2.93
2023-04-02T07:45:55.878Z,4.77
2023-04-02T07:48:24.844Z,5.87
2023-04-02T07:50:54.979Z,4.33
2023-04-02T07:53:30.892Z,4.23
2023-04-02T07:56:02.912Z,6.93
2023-04-02T07:58:32.416Z,5.60
2023-04-02T08:01:03.788Z,4.87
2023-04-02T08:03:32.879Z,5.30
2023-04-02T08:06:01.463Z,4.53
2023-04-02T08:08:29.899Z,3.83
2023-04-02T08:10:58.240Z,3.53
2023-04-02T08:13:27.597Z,7.67
2023-04-02T08:15:56.274Z,5.37
2023-04-02T08:18:28.150Z,5.03
2023-04-02T08:20:57.278Z,4.93
2023-04-02T08:23:26.652Z,3.57
2023-04-02T08:25:56.186Z,5.37
2023-04-02T08:28:25.549Z,3.80
2023-04-02T08:30:54.057Z,7.47
2023-04-02T08:33:22.555Z,3.33
2023-04-02T08:35:53.141Z,2.80
2023-04-02T08:38:23.827Z,7.40
2023-04-02T08:40:54.855Z,2.63
2023-04-02T08:43:42.813Z,4.57
2023-04-02T08:46:20.051Z,3.13
2023-04-02T08:48:57.000Z,3.57
2023-04-02T08:51:31.039Z,3.40
2023-04-02T08:54:05.233Z,2.67
2023-04-02T08:56:41.423Z,8.47
2023-04-02T08:59:21.307Z,6.07
2023-04-02T09:01:58.037Z,3.13
2023-04-02T09:04:27.881Z,4.23
2023-04-02T09:07:00.830Z,2.70
2023-04-02T09:09:29.576Z,2.63
2023-04-02T09:12:02.901Z,5.77
2023-04-02T09:14:43.373Z,3.70
2023-04-02T09:17:19.547Z,5.87
2023-04-02T09:20:19.319Z,5.37
2023-04-02T09:22:58.702Z,3.60
2023-04-02T09:25:42.202Z,3.73
2023-04-02T09:28:14.020Z,3.53
2023-04-02T09:31:06.875Z,3.80
2023-04-02T09:33:45.911Z,4.00
2023-04-02T09:36:42.089Z,4.57
2023-04-02T09:39:30.657Z,5.43
2023-04-02T09:42:09.624Z,3.33
2023-04-02T09:45:14.807Z,3.70
2023-04-02T09:47:47.922Z,3.83
2023-04-02T09:50:36.347Z,4.90
2023-04-02T09:53:34.069Z,3.27
2023-04-02T09:56:26.293Z,3.10
2023-04-02T09:59:08.497Z,5.10
2023-04-02T10:01:43.684Z,3.00
2023-04-02T10:04:37.482Z,2.60
2023-04-02T10:07:38.549Z,1.80
2023-04-02T10:10:28.031Z,2.50
2023-04-02T10:13:06.253Z,2.80
2023-04-02T10:18:48.213Z,2.83
2023-04-02T10:21:40.033Z,3.87
2023-04-02T10:24:14.877Z,4.30
2023-04-02T10:27:18.113Z,2.10
2023-04-02T10:30:15.642Z,3.53
2023-04-02T10:32:56.796Z,3.03
2023-04-02T10:35:43.129Z,1.83
2023-04-02T10:38:40.424Z,2.23
2023-04-02T10:42:04.014Z,3.20
2023-04-02T10:45:52.832Z,3.43
2023-04-02T10:48:36.007Z,4.27
2023-04-02T10:51:09.665Z,3.43
2023-04-02T10:54:01.802Z,3.40
2023-04-02T10:56:44.466Z,3.97
2023-04-02T10:59:33.583Z,3.57
2023-04-02T11:05:31.821Z,2.50
2023-04-02T11:46:05.921Z,2.03
2023-04-02T11:49:45.349Z,2.63
2023-04-02T11:58:01.567Z,1.63
2023-04-02T12:01:21.954Z,2.80
2023-04-02T12:05:10.624Z,1.93
2023-04-02T12:08:14.712Z,1.73
2023-04-02T12:11:19.021Z,2.13
2023-04-02T12:18:19.552Z,2.23
2023-04-02T12:21:49.617Z,1.83
2023-04-02T12:24:42.400Z,1.50
2023-04-02T12:29:25.002Z,1.20
2023-04-02T12:32:54.611Z,2.27
2023-04-02T12:53:46.350Z,4.23
2023-04-02T13:11:54.508Z,1.30
2023-04-02T13:29:16.135Z,2.33
2023-04-02T13:35:14.948Z,2.45
2023-04-02T13:37:51.035Z,1.83
2023-04-02T13:40:49.209Z,2.03
2023-04-02T13:43:37.098Z,2.03
2023-04-02T13:47:59.378Z,3.03
2023-04-02T13:50:48.927Z,2.20
2023-04-02T13:53:59.237Z,0.85
2023-04-02T13:57:06.402Z,1.73
2023-04-02T13:59:48.236Z,3.13
2023-04-02T14:06:13.524Z,1.30
2023-04-02T14:10:14.252Z,2.60
2023-04-02T14:14:01.805Z,1.55
2023-04-02T14:17:01.931Z,2.45
2023-04-02T14:21:05.816Z,0.80
2023-04-02T14:29:53.916Z,1.65
2023-04-02T15:23:22.136Z,2.00
2023-04-02T15:26:14.484Z,1.83
2023-04-02T15:43:02.727Z,1.63
2023-04-02T15:51:10.159Z,0.70
2023-04-02T15:54:46.649Z,2.28
2023-04-02T15:58:13.505Z,1.45
2023-04-02T16:01:09.891Z,2.08
2023-04-02T16:13:40.725Z,1.10
2023-04-02T16:16:23.159Z,3.00
2023-04-02T16:32:16.231Z,1.77
2023-04-02T16:36:04.232Z,2.08
2023-04-02T17:02:07.827Z,1.85
2023-04-02T17:05:41.777Z,1.15
2023-04-02T17:17:48.982Z,1.98
2023-04-02T17:25:42.880Z,1.02
2023-04-02T17:28:44.599Z,1.02
2023-04-02T17:31:40.435Z,1.88
2023-04-02T17:34:34.821Z,1.90
2023-04-02T17:37:58.715Z,1.73
2023-04-02T17:41:00.545Z,1.98
2023-04-02T17:44:02.657Z,1.85
2023-04-02T17:47:02.334Z,1.30
2023-04-02T17:51:04.004Z,1.70
2023-04-02T17:54:05.606Z,2.33
2023-04-02T17:58:22.842Z,2.23
2023-04-02T18:01:12.824Z,1.97
2023-04-02T18:04:11.291Z,2.23
2023-04-02T18:08:07.738Z,1.97
2023-04-02T18:15:03.490Z,1.63
2023-04-02T18:18:00.296Z,2.20
2023-04-02T18:26:09.381Z,3.40
2023-04-02T18:43:39.727Z,1.97
2023-04-02T18:46:39.297Z,2.73
2023-04-02T18:49:39.754Z,2.77
2023-04-02T18:52:48.019Z,2.43
2023-04-02T18:55:43.359Z,1.83
2023-04-02T18:59:02.965Z,2.20
2023-04-02T19:50:14.755Z,3.93
2023-04-02T19:53:20.146Z,2.30
2023-04-02T19:56:01.932Z,1.53
2023-04-02T19:58:58.234Z,2.83
2023-04-02T20:02:45.606Z,2.17
2023-04-02T20:05:38.263Z,2.00
2023-04-02T20:09:18.202Z,4.00
2023-04-02T20:11:50.394Z,3.73
2023-04-02T20:15:55.714Z,3.90
2023-04-02T20:18:39.770Z,4.13
2023-04-02T20:22:01.630Z,2.90
2023-04-02T20:29:42.035Z,2.87
2023-04-02T20:37:59.141Z,2.70
2023-04-02T20:41:55.258Z,3.73
2023-04-02T20:44:45.243Z,2.37
2023-04-02T20:47:43.699Z,3.13
2023-04-02T20:50:49.346Z,2.73
2023-04-02T20:53:42.185Z,3.23
2023-04-02T20:56:32.484Z,3.57
2023-04-02T20:59:20.169Z,2.53
2023-04-02T21:01:59.328Z,2.87
2023-04-02T21:04:54.905Z,3.50
2023-04-02T21:07:50.720Z,2.23
2023-04-02T21:10:52.678Z,3.40
2023-04-02T21:13:49.893Z,3.13
2023-04-02T21:16:37.007Z,3.30
2023-04-02T21:19:44.805Z,4.43
2023-04-02T21:23:02.452Z,2.13
2023-04-02T21:25:41.809Z,2.57
2023-04-02T21:29:59.529Z,1.80
2023-04-02T21:32:37.560Z,3.60
2023-04-02T21:39:37.794Z,2.20
2023-04-02T21:42:48.240Z,1.87
2023-04-02T21:45:24.525Z,3.20
2023-04-02T21:59:47.046Z,2.63
2023-04-02T22:02:49.842Z,3.20
2023-04-02T22:10:11.666Z,2.03
2023-04-02T22:13:37.595Z,3.77
2023-04-02T22:16:12.164Z,1.43
2023-04-02T22:18:48.977Z,3.13
2023-04-02T22:21:35.423Z,1.63
2023-04-02T22:28:18.761Z,2.30
2023-04-02T22:31:59.656Z,2.73
2023-04-02T22:48:04.515Z,1.87
2023-04-02T22:51:33.673Z,3.23
2023-04-02T22:58:36.776Z,4.30
2023-04-02T23:01:13.060Z,3.27
2023-04-02T23:03:49.848Z,1.87
2023-04-02T23:06:58.764Z,2.13
2023-04-02T23:09:40.551Z,1.90
2023-04-02T23:12:12.452Z,2.00
2023-04-02T23:15:08.143Z,2.00
2023-04-02T23:18:01.837Z,2.40
2023-04-02T23:20:44.001Z,3.90
2023-04-02T23:23:53.075Z,4.83
2023-04-02T23:27:02.796Z,1.90
2023-04-02T23:29:41.261Z,3.23
2023-04-02T23:35:02.449Z,2.30
2023-04-02T23:37:42.111Z,3.00
2023-04-02T23:40:17.206Z,1.70
2023-04-02T23:42:47.647Z,2.53
2023-04-02T23:46:06.985Z,1.33
2023-04-02T23:49:04.234Z,2.17
2023-04-02T23:51:51.500Z,1.27
2023-04-02T23:55:05.058Z,2.23
2023-04-02T23:58:01.664Z,2.53
